Welcome to our new website - Welkom op onze vernieuwde website - Bienvenue sur notre nouveau site web - Willkommen auf unserer neuen Website
Check our progress frequently. Prüfen Sie unsere Fortschritte regelmäßig. Consultez notre progression fréquemment. Komt u straks nog eens terug


Bezoek onze andere website:

Template documentation
and downloads

And another site



METAR rapporten vliegvelden

   
EBBR - Brussels International Airport, Belgium
Afstand tot: W 14 km
Gewijzigd: Apr 24 2018 7:50 pm
Gedeeltelijk bewolkt  
Gedeeltelijk bewolkt  
   Wind: ZW 19 km/h
Wind: ZW 19 km/h
Temperatuur: 16°C
Dauwpunt: 9°C
Vochtigheid: 63%
Barometer: 1013 hPa
Bewolking: Gedeeltelijk bewolkt
Zicht: meer dan 10 km
Bewolking: Gedeeltelijk bewolkt 1036.3 m
EBBR 241750Z 22010KT 9999 SCT034 16/09 Q1013 NOSIG
EBBE - Beauvechain (Bevekom), Belgium
Afstand tot: ZZO 17 km
Gewijzigd: Apr 24 2018 7:55 pm
Grotendeels bewolkt  
Grotendeels bewolkt  
   Wind: ZW 22 km/h
Wind: ZW 22 km/h
Temperatuur: 16°C
Dauwpunt: 10°C
Vochtigheid: 68%
Barometer: 1013 hPa
Bewolking: Grotendeels bewolkt
Zicht: meer dan 10 km
Bewolking: Licht bewolkt 914.4 m,
Gedeeltelijk bewolkt 1219.2 m,
Grotendeels bewolkt 2743.2 m
EBBE 241755Z 22012KT 9999 FEW030 SCT040 BKN090 16/10 Q1013 BLU BLU
EBDT - Schaffen, Belgium
Afstand tot: ONO 29 km
Gewijzigd: Apr 24 2018 7:55 pm
Grotendeels bewolkt  
Grotendeels bewolkt  
   Wind: ZW 6 km/h
Wind: ZW 6 km/h
Temperatuur: 15°C
Dauwpunt: 8°C
Vochtigheid: 63%
Barometer: 1013 hPa
Bewolking: Grotendeels bewolkt
Zicht: meer dan 10 km
Bewolking: Licht bewolkt 2286 m,
Grotendeels bewolkt 2743.2 m
EBDT 241755Z AUTO 23003KT 9999 FEW075/// BKN090/// 15/08 Q1013 BLU
EBAW - Antwerp/Deurne, Belgium
Afstand tot: NNW 38 km
Gewijzigd: Apr 24 2018 7:50 pm
Helder  
Helder  
   Wind: ZW 11 km/h
Wind: ZW 11 km/h
Temperatuur: 16°C
Dauwpunt: 9°C
Vochtigheid: 63%
Barometer: 1013 hPa
Zicht: meer dan 10 km
Bewolking: Helder
EBAW 241750Z 22006KT 180V260 CAVOK 16/09 Q1013 NOSIG
EBCI - Charleroi/Gosselies, Belgium
Afstand tot: ZZW 51 km
Gewijzigd: Apr 24 2018 7:50 pm
Grotendeels bewolkt  
Grotendeels bewolkt  
   Wind: ZW 20 km/h
Wind: ZW 20 km/h
Temperatuur: 16°C
Dauwpunt: 10°C
Vochtigheid: 68%
Barometer: 1014 hPa
Bewolking: Grotendeels bewolkt
Zicht: meer dan 10 km
Bewolking: Licht bewolkt 762 m,
Grotendeels bewolkt 1219.2 m
EBCI 241750Z 23011KT 9999 FEW025 BKN040 16/10 Q1014 NOSIG
EBLG - Bierset/Liege, Belgium
Afstand tot: OZO 60 km
Gewijzigd: Apr 24 2018 7:50 pm
Gedeeltelijk bewolkt  
Gedeeltelijk bewolkt  
   Wind: ZW 20 km/h
Wind: ZW 20 km/h
Temperatuur: 16°C
Dauwpunt: 10°C
Vochtigheid: 68%
Barometer: 1014 hPa
Bewolking: Gedeeltelijk bewolkt
Zicht: meer dan 10 km
Bewolking: Gedeeltelijk bewolkt 1066.8 m
EBLG 241750Z 22011KT 9999 SCT035 16/10 Q1014 NOSIG

Script ontwikkeld door  Saratoga-weather.org Aangepast voor de template door  Weerstation Leuven

U vindt ons ook hier:

Het Weer Aktueel

UK Metoffice

European Weather Network

WeatherCloud

Weather Underground

AWEKAS

Apparatuur in gebruik:

Weerstation
Davis VP2

Weerprogramma
Meteobridge

Weercomputer
Tl-mr3020

Webleverancier
VIP Internet

Davis VP2

Meteobridge

Tl-mr3020

VIP Internet